Impacts TAF Board
For situational awareness. Not to be used for flight planning purposes.
IDs:

KSAF - Santa Fe Cnty Muni, NM, US

Issued at 1732 UTC 01 Feb 2023
Updated at 2226 UTC 01 Feb 2023
Potential Impact None Slight Moderate High
Time2153Z 01/23Z 02/00Z 02/01Z 02/02Z 02/03Z 02/04Z 02/05Z 02/06Z 02/07Z 02/08Z 02/09Z 02/10Z 02/11Z>>
Type OBS PRVL PRVL PRVL PRVL PRVL PRVL PRVL PRVL PRVL PRVL PRVL PRVL PRVL
VIS 10 >6 >6 >6 >6 >6 >6 >6 >6 >6 >6 >6 >6 >6
CIG -- -- -- -- -- -- -- -- -- -- -- -- -- --
Cover CLR SKC SKC SKC SKC SKC SKC SKC SKC SKC SKC SKC SKC SKC
FltCat VFR VFR VFR VFR VFR VFR VFR VFR VFR VFR VFR VFR VFR VFR
WX -- -- -- -- -- -- -- -- -- -- -- -- -- --
WDir 320 300 300 300 10 10 10 10 10 10 10 10 10 10
WSpd 10 8 8 8 10 10 10 10 10 10 10 10 10 10
WGst -- -- -- -- -- -- -- -- -- -- -- -- -- --
WSHgt -- -- -- -- -- -- -- -- -- -- -- -- -- --
WSDir -- -- -- -- -- -- -- -- -- -- -- -- -- --
WSSpd -- -- -- -- -- -- -- -- -- -- -- -- -- --
R02/20
XWnd 10 8 8 8 4 4 4 4 4 4 4 4 4 4
HWnd 3 -1 -1 -1 9 9 9 9 9 9 9 9 9 9
R10/28
XWnd 5 1 1 1 10 10 10 10 10 10 10 10 10 10
HWnd -9 -8 -8 -8 -2 -2 -2 -2 -2 -2 -2 -2 -2 -2
R15/33
XWnd -5 -6 -6 -6 4 4 4 4 4 4 4 4 4 4
HWnd -9 -5 -5 -5 -9 -9 -9 -9 -9 -9 -9 -9 -9 -9

NOTE: LAMP data beyond the time of the TAF data is denoted as LAMP in Type and colored magenta.

Raw TAF
KSAF 011732Z 0118/0218 36013KT P6SM SKC
  FM012100 30008KT P6SM SKC
  FM020200 01010KT P6SM SKC
  FM021200 36015G22KT P6SM FEW250


Raw METAR
KSAF 012153Z 32010KT 10SM CLR 07/M13 A3007 RMK AO2 SLP169 T00721128
KSAF 012053Z 35010G14KT 10SM CLR 07/M12 A3008 RMK AO2 SLP173 T00721117 58018
KSAF 011953Z 35010KT 10SM CLR 06/M11 A3011 RMK AO2 SLP186 T00611111

METAR Board
Radar Display
Forecast Discussion

For situational awareness. Not to be used for flight planning purposes.